Terminal Aerodrome Forecast
Issued by NWS

Home | Current Version | Previous Version | Text Only | Print | Product List | Glossary On
Versions: 1 2 3 4 5 6 7 8 9 10 11 12 13 14 15 16 17 18 19
000
FTUS43 KFGF 052037 AAB
TAFTVF
TAF AMD
KTVF 052037Z 0521/0618 08015G20KT P6SM OVC006
      TEMPO 0522/0524 2SM -SN OVC003
     FM060000 07011KT 3SM -SN OVC003
     FM060500 04011KT 1 1/2SM -SN OVC003
     FM060800 33010KT 2SM -SN OVC003
     FM061200 32015G23KT 1 1/2SM -SN BKN003=

USA.gov is the U.S. government's official web portal to all federal, state and local government web resources and services.